NZAA/AKL METAR and TAF weather

Enter ICAO airport designator
Station Type Date Time Source
NZAA METAR 2020/07/05 15:30 UTC NOAA

NZAA 051530Z AUTO 34009KT 9999 -RA SCT024/// BKN038/// BKN095/// 13/11 Q1003 TEMPO TL1600 5000 SHRA


Station Type Date Time Source
NZAA Decoded METAR 2020/07/05 15:30 UTC NOAA

Auckland Airport, New Zealand (NZAA) 37-01S 174-48E 6M
Jul 05, 2020 - 11:30 AM EDT / 2020.07.05 1530 UTC
Wind: from the NNW (340 degrees) at 10 MPH (9 KT):0
Visibility: greater than 7 mile(s):0
Sky conditions: mostly cloudy
Weather: light rain
Temperature: 55 F (13 C)
Dew Point: 51 F (11 C)
Relative Humidity: 87%
Pressure (altimeter): 29.62 in. Hg (1003 hPa)
ob: NZAA 051530Z AUTO 34009KT 9999 -RA SCT024/// BKN038/// BKN095/// 13/11 Q1003 TEMPO TL1600 5000 SHRA
cycle: 15

Station Type Date Time Source
NZAA TAF 2020/07/05 12:06 UTC NOAA

TAF TAF NZAA 051103Z 0512/0612 01018KT 9999 -SHRA FEW020 BKN040
BECMG 0512/0514 01008KT
TEMPO 0512/0516 5000 SHRA FEW020TCU
TEMPO 0520/0606 5000 SHRA FEW020TCU PROB40
TEMPO 0523/0606 2500 TSRAGS BKN014 FEW014CB
BECMG 0603/0605 25012KT

Example: see airport list